Terminal Aerodrome Forecast
Issued by NWS Dodge City, KS

Home | Current Version | Previous Version | Text Only | Print | Product List | Glossary On
Versions: 1 2 3 4 5 6 7 8 9 10 11 12 13 14 15
000
FTUS43 KDDC 141700
TAFDDC
TAF
KDDC 141720Z 1418/1518 35020G25KT P6SM FEW200
     FM150000 33008KT P6SM SKC
     FM150400 26008KT P6SM SKC
     FM151700 22012G22KT P6SM SKC=

USA.gov is the U.S. government's official web portal to all federal, state and local government web resources and services.